»·PEaware :: DAL1233 KSFO-KLAX

DAL1233 :: KSFO-KLAX

FLIGHT INFORMATION

Flight Status: Arrived
Operator:
Delta Air Lines
More flights by this operator :: More flights under this callsign
Pilot: Kevin M. (7)
Aircraft: BOEING 737-800
(B738)
More flights by this aircraft type
Origin: KSFO San Francisco Intl
United States
Destination: KLAX Los Angeles Intl
United States
More flights between these airports :: More routes between these airports
Route: SSTIK4 EBAYE BURGL IRNMN2
File this flight plan on PilotEdge
Remarks:
Altitude:
(Current/Filed)
37,000ft
Speed:
(Current/Filed)
468kts
Departed: 16-Nov-20 11:18 AM
Arrived: 16-Nov-20 12:11 PM
Distance/Time
Traveled:
292nm/0:53
Distance/Time
To Go:
Arrived

Flight Plot

Page will automatically refresh every two minutes.

Flight plan parsing failed; only flown route is shown


Map Options




Map Legend


Flown Route
Filed Route
Departure Airport
Arrival Airport
Navaid (VOR, NDB)
Fix

Horizontal Profiles

Position Reports

Time Latitude Longitude Heading Altitude Ground
Speed
16-Nov-20 11:03 37.615108 -122.381840 263 37ft 0kts
16-Nov-20 11:04 37.615108 -122.381840 263 37ft 0kts
16-Nov-20 11:05 37.615108 -122.381840 263 37ft 0kts
16-Nov-20 11:06 37.615108 -122.381840 263 37ft 0kts
16-Nov-20 11:07 37.615108 -122.381840 263 37ft 0kts
16-Nov-20 11:08 37.615109 -122.381840 263 37ft 0kts
16-Nov-20 11:09 37.615141 -122.381459 251 37ft 2kts
16-Nov-20 11:10 37.615604 -122.381391 120 36ft 0kts
16-Nov-20 11:11 37.615637 -122.381480 116 36ft 0kts
16-Nov-20 11:12 37.615637 -122.381480 116 36ft 0kts
16-Nov-20 11:13 37.615517 -122.381177 117 36ft 7kts
16-Nov-20 11:14 37.612356 -122.382456 208 37ft 19kts
16-Nov-20 11:15 37.609060 -122.384721 177 36ft 6kts
16-Nov-20 11:16 37.608183 -122.382822 67 34ft 6kts
16-Nov-20 11:17 37.618201 -122.376003 30 26ft 141kts
16-Nov-20 11:18 37.665966 -122.358915 353 2496ft 213kts
16-Nov-20 11:19 37.711990 -122.404455 267 5598ft 251kts
16-Nov-20 11:20 37.661032 -122.452912 184 8900ft 268kts
16-Nov-20 11:21 37.582322 -122.458946 186 11368ft 311kts
16-Nov-20 11:22 37.488428 -122.449040 156 12549ft 381kts
16-Nov-20 11:23 37.408146 -122.356198 133 14596ft 406kts
16-Nov-20 11:24 37.330469 -122.250458 137 16518ft 416kts
16-Nov-20 11:25 37.249194 -122.145166 137 18199ft 426kts
16-Nov-20 11:26 37.166375 -122.035526 136 19632ft 438kts
16-Nov-20 11:27 37.082430 -121.922682 136 20931ft 445kts
16-Nov-20 11:28 36.997896 -121.809280 135 22235ft 446kts
16-Nov-20 11:29 36.912770 -121.695449 135 23231ft 451kts
16-Nov-20 11:30 36.826156 -121.580004 135 24081ft 458kts
16-Nov-20 11:31 36.738612 -121.463728 135 24848ft 463kts
16-Nov-20 11:32 36.649885 -121.346322 135 25534ft 468kts
16-Nov-20 11:33 36.560077 -121.227950 136 26138ft 472kts
16-Nov-20 11:34 36.469568 -121.109072 135 26736ft 475kts
16-Nov-20 11:35 36.380474 -120.987973 133 27418ft 476kts
16-Nov-20 11:36 36.294063 -120.864223 133 28184ft 474kts
16-Nov-20 11:37 36.208021 -120.741038 133 28936ft 473kts
16-Nov-20 11:38 36.122200 -120.618512 133 29677ft 472kts
16-Nov-20 11:39 36.036349 -120.496354 133 30407ft 470kts
16-Nov-20 11:40 35.950587 -120.374765 133 31126ft 469kts
16-Nov-20 11:41 35.856886 -120.265116 145 31828ft 464kts
16-Nov-20 11:42 35.751081 -120.175345 149 32527ft 461kts
16-Nov-20 11:43 35.643834 -120.090143 148 33202ft 460kts
16-Nov-20 11:44 35.539105 -120.000460 148 33854ft 459kts
16-Nov-20 11:45 35.434249 -119.911313 148 34479ft 458kts
16-Nov-20 11:46 35.329994 -119.823130 148 35177ft 454kts
16-Nov-20 11:47 35.229958 -119.738782 148 37063ft 423kts
16-Nov-20 11:48 35.131483 -119.656189 148 37053ft 435kts
16-Nov-20 11:49 35.031377 -119.572377 148 35383ft 443kts
16-Nov-20 11:50 34.929811 -119.487568 147 30472ft 450kts
16-Nov-20 11:51 34.826138 -119.397760 144 24698ft 450kts
16-Nov-20 11:52 34.731088 -119.314141 144 23105ft 393kts
16-Nov-20 11:53 34.645997 -119.237068 143 23084ft 385kts
16-Nov-20 11:54 34.561837 -119.161037 144 22694ft 362kts
16-Nov-20 11:55 34.477707 -119.086640 144 19635ft 378kts
16-Nov-20 11:56 34.393803 -119.016619 144 17557ft 357kts
16-Nov-20 11:57 34.315348 -118.948481 142 15597ft 340kts
16-Nov-20 11:58 34.241493 -118.881133 141 13661ft 326kts
16-Nov-20 11:59 34.173254 -118.818384 141 12680ft 290kts
16-Nov-20 12:00 34.114261 -118.755678 136 11360ft 278kts
16-Nov-20 12:01 34.057616 -118.693787 133 10056ft 269kts
16-Nov-20 12:02 34.024939 -118.617950 98 8921ft 258kts
16-Nov-20 12:03 34.017244 -118.532422 95 7773ft 253kts
16-Nov-20 12:04 34.011668 -118.450286 82 6912ft 239kts
16-Nov-20 12:05 34.022368 -118.369615 91 5130ft 267kts
16-Nov-20 12:06 34.022533 -118.280738 85 3597ft 269kts
16-Nov-20 12:07 33.975115 -118.255416 236 2663ft 234kts
16-Nov-20 12:08 33.961249 -118.321816 263 1421ft 186kts
16-Nov-20 12:09 33.954830 -118.374733 263 593ft 153kts
16-Nov-20 12:10 33.950536 -118.417213 254 130ft 27kts

Navigation Log

Ident Type
Flight plan parsing failed, navigation log unavailable